Strona główna
METAR-TAF:

METAR-TAF

Lotnisko :

Port lotniczy Pohnpei

Pohnpei, Mikronezja

Szerokość geograficzna: 06-59N, Długość geograficzna: 158-12E, wysokość: 2 m

Aktualna obserwacja pogody

Raport powstał 15 minut temu, godzina 21:14 UTC
Wiatr 6 kt od południowy wschód
Temperatura 27°C
Wilgotność 94%
Ciśnienie 1008 hPa
Widzialność: 24.1 km
Przerywane chmury na wysokości 1700 ft, Cumulusy wypiętrznone.
Zachmurzenie całkowite na wysokości 13000 ft

METAR: PTPN 092114Z 13006KT 15SM BKN017TCU OVC130 27/26 A2977 RMK TCU ALQDS FISRT

czas: 08:29 (21:29 UTC)

Prognoza

Raport powstał 21 godziny i 51 minut temu, godzina 23:38 UTC
Prognoza ważna od 09 godzina 00 UTC do 09 godzina 24 UTC
Wiatr 10 kt od wschód
Widzialność: 10 km
Mało chmury na wysokości 1800 ft
Rozproszone chmury na wysokości 4000 ft
Rozproszone chmury na wysokości 14000 ft
przelotny w pobliże

TAF: PTPN 082338Z 0900/0924 10010KT P6SM VCSH FEW018 SCT040 SCT140

Obserwacja i prognoza pogody dla ponad 4000 lotnisk (raport METAR i TAF).

Dostępne stacje oznaczono żółtymi i czerwonymi punktami na mapie.

Najedź kursorem aby zobaczyć nazwę stacji.

Kliknij aby zobaczyć obserwacje i prognozy pogody.

Aby zmienić mapę: kliknij na zielony przycisk z czarnym krzyżykiem, aby powiększyć; na zielony przycisk z myślnikiem, aby pomniejszyć; na zielone strzałki, aby przejść do map sąsiednich.


METAR-TAF: